createdAt,value
2019-03-01T00:01:02.471Z,9.04
2019-03-01T00:02:12.937Z,9.04
2019-03-01T00:03:24.226Z,9.03
2019-03-01T00:04:36.642Z,9.03
2019-03-01T00:05:47.923Z,9.04
2019-03-01T00:06:59.210Z,9.03
2019-03-01T00:08:10.688Z,9.02
2019-03-01T00:09:21.977Z,9.02
2019-03-01T00:10:33.281Z,9.01
2019-03-01T00:11:44.638Z,9.02
2019-03-01T00:12:55.922Z,9.02
2019-03-01T00:14:07.216Z,9.01
2019-03-01T00:15:18.631Z,9.01
2019-03-01T00:16:29.918Z,9.01
2019-03-01T00:17:41.211Z,8.99
2019-03-01T00:18:52.636Z,8.98
2019-03-01T00:20:03.917Z,8.98
2019-03-01T00:21:15.199Z,8.93
2019-03-01T00:22:26.638Z,8.91
2019-03-01T00:23:37.920Z,8.89
2019-03-01T00:24:49.205Z,8.88
2019-03-01T00:26:00.641Z,8.85
2019-03-01T00:27:11.960Z,8.84
2019-03-01T00:28:23.264Z,8.81
2019-03-01T00:29:34.544Z,8.80
2019-03-01T00:30:45.850Z,8.79
2019-03-01T00:31:57.124Z,8.78
2019-03-01T00:33:08.461Z,8.76
2019-03-01T00:34:19.724Z,8.75
2019-03-01T00:35:31.015Z,8.74
2019-03-01T00:36:42.308Z,8.73
2019-03-01T00:37:53.581Z,8.71
2019-03-01T00:39:04.866Z,8.71
2019-03-01T00:40:16.157Z,8.70
2019-03-01T00:41:27.447Z,8.69
2019-03-01T00:42:38.746Z,8.67
2019-03-01T00:43:50.022Z,8.65
2019-03-01T00:45:00.820Z,8.62
2019-03-01T00:46:12.121Z,8.62
2019-03-01T00:47:23.405Z,8.61
2019-03-01T00:48:34.681Z,8.58
2019-03-01T00:49:45.973Z,8.57
2019-03-01T00:50:57.269Z,8.57
2019-03-01T00:52:08.631Z,8.55
2019-03-01T00:53:19.906Z,8.54
2019-03-01T00:54:31.182Z,8.52
2019-03-01T00:55:42.460Z,8.51
2019-03-01T00:56:53.731Z,8.50
2019-03-01T00:58:05.007Z,8.50
2019-03-01T00:59:16.280Z,8.48
2019-03-01T01:00:27.554Z,8.48
2019-03-01T01:01:38.845Z,8.47
2019-03-01T01:02:50.145Z,8.47
2019-03-01T01:04:01.431Z,8.46
2019-03-01T01:05:12.701Z,8.45
2019-03-01T01:06:23.991Z,8.44
2019-03-01T01:07:35.261Z,8.44
2019-03-01T01:08:46.629Z,8.43
2019-03-01T01:09:57.929Z,8.43
2019-03-01T01:11:09.206Z,8.42
2019-03-01T01:12:20.487Z,8.41
2019-03-01T01:13:31.775Z,8.40
2019-03-01T01:14:43.063Z,8.40
2019-03-01T01:15:54.345Z,8.40
2019-03-01T01:17:05.644Z,8.39
2019-03-01T01:18:16.918Z,8.38
2019-03-01T01:19:28.192Z,8.37
2019-03-01T01:20:39.461Z,8.36
2019-03-01T01:21:50.766Z,8.35
2019-03-01T01:23:02.044Z,8.34
2019-03-01T01:24:13.322Z,8.32
2019-03-01T01:25:24.634Z,8.31
2019-03-01T01:26:35.927Z,8.28
2019-03-01T01:27:47.211Z,8.26
2019-03-01T01:28:58.624Z,8.24
2019-03-01T01:30:09.903Z,8.23
2019-03-01T01:31:21.189Z,8.20
2019-03-01T01:32:32.479Z,8.19
2019-03-01T01:33:43.762Z,8.17
2019-03-01T01:34:55.049Z,8.16
2019-03-01T01:36:06.342Z,8.13
2019-03-01T01:37:17.639Z,8.11
2019-03-01T01:38:28.945Z,8.08
2019-03-01T01:39:40.183Z,8.05
2019-03-01T01:40:51.452Z,8.01
2019-03-01T01:42:02.739Z,7.97
2019-03-01T01:43:14.017Z,7.93
2019-03-01T01:44:25.293Z,7.90
2019-03-01T01:45:36.574Z,7.87
2019-03-01T01:46:47.847Z,7.83
2019-03-01T01:48:00.134Z,7.79
2019-03-01T01:49:11.401Z,7.75
2019-03-01T01:50:22.692Z,7.72
2019-03-01T01:51:33.955Z,7.70
2019-03-01T01:52:45.224Z,7.67
2019-03-01T01:53:56.646Z,7.65
2019-03-01T01:55:07.921Z,7.63
2019-03-01T01:56:20.204Z,7.60
2019-03-01T01:57:31.763Z,7.59
2019-03-01T01:58:43.033Z,7.57
2019-03-01T01:59:54.321Z,7.57
2019-03-01T02:01:06.638Z,7.57
2019-03-01T02:02:17.907Z,7.57
2019-03-01T02:03:29.170Z,7.57
2019-03-01T02:04:40.446Z,7.57
2019-03-01T02:05:51.716Z,7.56
2019-03-01T02:07:02.988Z,7.55
2019-03-01T02:08:14.271Z,7.55
2019-03-01T02:09:25.561Z,7.54
2019-03-01T02:10:36.829Z,7.53
2019-03-01T02:11:48.093Z,7.54
2019-03-01T02:12:59.381Z,7.54
2019-03-01T02:14:10.643Z,7.54
2019-03-01T02:15:21.908Z,7.54
2019-03-01T02:16:33.188Z,7.55
2019-03-01T02:17:44.448Z,7.56
2019-03-01T02:18:57.936Z,7.57
2019-03-01T02:20:07.013Z,7.58
2019-03-01T02:21:18.281Z,7.60
2019-03-01T02:22:29.551Z,7.60
2019-03-01T02:23:40.836Z,7.61
2019-03-01T02:24:52.115Z,7.61
2019-03-01T02:26:03.393Z,7.63
2019-03-01T02:27:14.722Z,7.63
2019-03-01T02:28:25.990Z,7.66
2019-03-01T02:29:37.289Z,7.66
2019-03-01T02:30:48.631Z,7.67
2019-03-01T02:31:59.906Z,7.67
2019-03-01T02:33:11.192Z,7.67
2019-03-01T02:34:22.468Z,7.68
2019-03-01T02:35:33.732Z,7.68
2019-03-01T02:36:44.994Z,7.69
2019-03-01T02:37:56.272Z,7.69
2019-03-01T02:39:07.550Z,7.69
2019-03-01T02:40:18.823Z,7.69
2019-03-01T02:41:30.074Z,7.69
2019-03-01T02:42:41.360Z,7.69
2019-03-01T02:43:52.634Z,7.70
2019-03-01T02:45:03.902Z,7.71
2019-03-01T02:46:15.160Z,7.72
2019-03-01T02:47:26.603Z,7.73
2019-03-01T02:48:37.886Z,7.73
2019-03-01T02:49:49.237Z,7.73
2019-03-01T02:51:00.420Z,7.74
2019-03-01T02:52:11.702Z,7.74
2019-03-01T02:53:22.963Z,7.74
2019-03-01T02:54:34.244Z,7.74
2019-03-01T02:55:45.511Z,7.75
2019-03-01T02:56:56.799Z,7.75
2019-03-01T02:58:08.057Z,7.75
2019-03-01T02:59:19.337Z,7.75
2019-03-01T03:00:30.620Z,7.76
2019-03-01T03:01:41.891Z,7.75
2019-03-01T03:02:53.160Z,7.74
2019-03-01T03:04:04.459Z,7.75
2019-03-01T03:05:15.721Z,7.75
2019-03-01T03:06:26.995Z,7.75
2019-03-01T03:07:38.269Z,7.74
2019-03-01T03:08:49.542Z,7.74
2019-03-01T03:10:00.826Z,7.74
2019-03-01T03:11:12.079Z,7.74
2019-03-01T03:12:23.373Z,7.73
2019-03-01T03:13:34.621Z,7.73
2019-03-01T03:14:45.891Z,7.73
2019-03-01T03:15:57.162Z,7.72
2019-03-01T03:17:08.442Z,7.72
2019-03-01T03:18:19.686Z,7.72
2019-03-01T03:19:30.959Z,7.73
2019-03-01T03:20:42.231Z,7.73
2019-03-01T03:21:53.500Z,7.73
2019-03-01T03:23:04.794Z,7.73
2019-03-01T03:24:16.044Z,7.73
2019-03-01T03:25:27.308Z,7.72
2019-03-01T03:26:38.588Z,7.72
2019-03-01T03:27:49.840Z,7.72
2019-03-01T03:29:02.107Z,7.71
2019-03-01T03:30:13.370Z,7.71
2019-03-01T03:31:24.636Z,7.69
2019-03-01T03:32:35.917Z,7.68
2019-03-01T03:33:47.226Z,7.68
2019-03-01T03:34:58.439Z,7.64
2019-03-01T03:36:09.692Z,7.63
2019-03-01T03:37:21.967Z,7.62
2019-03-01T03:38:33.231Z,7.61
2019-03-01T03:39:44.622Z,7.60
2019-03-01T03:40:55.909Z,7.59
2019-03-01T03:42:08.176Z,7.58
2019-03-01T03:43:19.438Z,7.57
2019-03-01T03:44:30.707Z,7.56
2019-03-01T03:45:41.985Z,7.55
2019-03-01T03:46:53.247Z,7.54
2019-03-01T03:48:04.632Z,7.54
2019-03-01T03:49:16.894Z,7.53
2019-03-01T03:50:28.169Z,7.51
2019-03-01T03:51:39.446Z,7.50
2019-03-01T03:52:50.705Z,7.48
2019-03-01T03:54:01.960Z,7.47
2019-03-01T03:55:13.243Z,7.47
2019-03-01T03:56:24.628Z,7.45
2019-03-01T03:57:35.892Z,7.45
2019-03-01T03:58:47.158Z,7.44
2019-03-01T03:59:58.440Z,7.43
2019-03-01T04:01:09.704Z,7.42
2019-03-01T04:02:20.981Z,7.42
2019-03-01T04:03:32.250Z,7.41
2019-03-01T04:04:43.498Z,7.40
2019-03-01T04:05:54.761Z,7.38
2019-03-01T04:07:06.021Z,7.38
2019-03-01T04:08:17.274Z,7.36
2019-03-01T04:09:28.541Z,7.34
2019-03-01T04:10:39.817Z,7.33
2019-03-01T04:11:51.082Z,7.31
2019-03-01T04:13:02.356Z,7.30
2019-03-01T04:14:13.638Z,7.28
2019-03-01T04:15:24.878Z,7.27
2019-03-01T04:16:36.163Z,7.25
2019-03-01T04:17:47.415Z,7.24
2019-03-01T04:18:58.693Z,7.22
2019-03-01T04:20:10.948Z,7.21
2019-03-01T04:21:22.215Z,7.21
2019-03-01T04:22:33.483Z,7.20
2019-03-01T04:23:44.745Z,7.19
2019-03-01T04:24:56.026Z,7.20
2019-03-01T04:26:07.271Z,7.18
2019-03-01T04:27:18.623Z,7.17
2019-03-01T04:28:29.883Z,7.16
2019-03-01T04:29:41.138Z,7.15
2019-03-01T04:30:52.405Z,7.15
2019-03-01T04:32:03.667Z,7.15
2019-03-01T04:33:14.920Z,7.15
2019-03-01T04:34:26.172Z,7.15
2019-03-01T04:35:37.434Z,7.15
2019-03-01T04:36:48.200Z,7.16
2019-03-01T04:37:59.461Z,7.17
2019-03-01T04:39:10.732Z,7.16
2019-03-01T04:40:22.991Z,7.17
2019-03-01T04:41:34.261Z,7.18
2019-03-01T04:42:45.517Z,7.19
2019-03-01T04:43:56.762Z,7.19
2019-03-01T04:45:08.016Z,7.19
2019-03-01T04:46:19.276Z,7.20
2019-03-01T04:47:30.619Z,7.20
2019-03-01T04:48:41.889Z,7.22
2019-03-01T04:49:53.151Z,7.23
2019-03-01T04:51:04.403Z,7.23
2019-03-01T04:52:15.659Z,7.24
2019-03-01T04:53:26.914Z,7.25
2019-03-01T04:54:38.176Z,7.26
2019-03-01T04:55:50.433Z,7.27
2019-03-01T04:57:01.702Z,7.27
2019-03-01T04:58:12.963Z,7.27
2019-03-01T04:59:24.223Z,7.27
2019-03-01T05:00:35.479Z,7.27
2019-03-01T05:01:46.747Z,7.26
2019-03-01T05:02:58.013Z,7.27
2019-03-01T05:04:09.276Z,7.26
2019-03-01T05:05:21.553Z,7.26
2019-03-01T05:06:32.820Z,7.26
2019-03-01T05:07:44.102Z,7.26
2019-03-01T05:08:55.371Z,7.26
2019-03-01T05:10:06.634Z,7.27
2019-03-01T05:11:17.913Z,7.26
2019-03-01T05:12:29.166Z,7.26
2019-03-01T05:13:40.449Z,7.24
2019-03-01T05:14:51.709Z,7.24
2019-03-01T05:16:02.985Z,7.24
2019-03-01T05:17:14.267Z,7.23
2019-03-01T05:18:25.533Z,7.24
2019-03-01T05:19:36.801Z,7.23
2019-03-01T05:20:48.066Z,7.22
2019-03-01T05:21:59.320Z,7.22
2019-03-01T05:23:10.630Z,7.22
2019-03-01T05:24:21.888Z,7.22
2019-03-01T05:25:33.159Z,7.21
2019-03-01T05:26:44.422Z,7.22
2019-03-01T05:27:55.686Z,7.22
2019-03-01T05:29:06.939Z,7.22
2019-03-01T05:30:18.199Z,7.22
2019-03-01T05:31:29.452Z,7.23
2019-03-01T05:32:40.705Z,7.23
2019-03-01T05:33:51.968Z,7.23
2019-03-01T05:35:03.224Z,7.23
2019-03-01T05:36:14.617Z,7.22
2019-03-01T05:37:25.876Z,7.23
2019-03-01T05:38:37.186Z,7.23
2019-03-01T05:39:48.435Z,7.23
2019-03-01T05:40:59.694Z,7.23
2019-03-01T05:42:10.954Z,7.24
2019-03-01T05:43:22.219Z,7.24
2019-03-01T05:44:33.474Z,7.25
2019-03-01T05:45:44.730Z,7.25
2019-03-01T05:46:55.985Z,7.25
2019-03-01T05:48:07.236Z,7.25
2019-03-01T05:49:18.625Z,7.25
2019-03-01T05:50:29.895Z,7.26
2019-03-01T05:51:41.156Z,7.27
2019-03-01T05:52:52.414Z,7.26
2019-03-01T05:54:03.679Z,7.27
2019-03-01T05:55:14.943Z,7.25
2019-03-01T05:56:26.214Z,7.25
2019-03-01T05:57:37.456Z,7.24
2019-03-01T05:58:48.715Z,7.22
2019-03-01T05:59:59.965Z,7.22
2019-03-01T06:01:11.240Z,7.21
2019-03-01T06:02:22.627Z,7.19
2019-03-01T06:03:33.877Z,7.17
2019-03-01T06:04:45.149Z,7.16
2019-03-01T06:05:56.381Z,7.16
2019-03-01T06:07:07.648Z,7.15
2019-03-01T06:08:18.908Z,7.15
2019-03-01T06:09:30.156Z,7.14
2019-03-01T06:10:41.407Z,7.14
2019-03-01T06:11:52.674Z,7.14
2019-03-01T06:13:03.916Z,7.15
2019-03-01T06:14:15.172Z,7.15
2019-03-01T06:15:26.424Z,7.16
2019-03-01T06:16:37.686Z,7.18
2019-03-01T06:17:48.945Z,7.20
2019-03-01T06:19:00.194Z,7.23
2019-03-01T06:20:11.452Z,7.24
2019-03-01T06:21:23.702Z,7.28
2019-03-01T06:22:34.955Z,7.30
2019-03-01T06:23:46.205Z,7.32
2019-03-01T06:24:57.467Z,7.34
2019-03-01T06:26:08.733Z,7.36
2019-03-01T06:27:19.495Z,7.39
2019-03-01T06:28:30.756Z,7.42
2019-03-01T06:29:43.027Z,7.44
2019-03-01T06:30:54.282Z,7.46
2019-03-01T06:32:05.528Z,7.48
2019-03-01T06:33:16.783Z,7.49
2019-03-01T06:34:28.045Z,7.50
2019-03-01T06:35:39.330Z,7.53
2019-03-01T06:36:50.612Z,7.54
2019-03-01T06:38:01.871Z,7.55
2019-03-01T06:39:13.128Z,7.58
2019-03-01T06:40:24.407Z,7.58
2019-03-01T06:41:35.654Z,7.59
2019-03-01T06:42:47.906Z,7.61
2019-03-01T06:43:59.159Z,7.63
2019-03-01T06:45:10.419Z,7.66
2019-03-01T06:46:21.678Z,7.68
2019-03-01T06:47:32.941Z,7.71
2019-03-01T06:48:44.205Z,7.73
2019-03-01T06:49:55.467Z,7.74
2019-03-01T06:51:06.740Z,7.76
2019-03-01T06:52:18.001Z,7.77
2019-03-01T06:53:29.273Z,7.77
2019-03-01T06:54:40.627Z,7.76
2019-03-01T06:55:51.882Z,7.76
2019-03-01T06:57:03.139Z,7.75
2019-03-01T06:58:14.510Z,7.75
2019-03-01T06:59:26.030Z,7.74
2019-03-01T07:00:37.292Z,7.74
2019-03-01T07:01:48.626Z,7.74
2019-03-01T07:02:59.888Z,7.75
2019-03-01T07:04:11.152Z,7.76
2019-03-01T07:05:22.417Z,7.75
2019-03-01T07:06:34.672Z,7.76
2019-03-01T07:07:45.932Z,7.77
2019-03-01T07:08:57.200Z,7.78
2019-03-01T07:10:08.626Z,7.78
2019-03-01T07:11:19.883Z,7.79
2019-03-01T07:12:31.157Z,7.80
2019-03-01T07:13:42.420Z,7.81
2019-03-01T07:14:53.714Z,7.83
2019-03-01T07:16:04.961Z,7.83
2019-03-01T07:17:16.243Z,7.84
2019-03-01T07:18:27.511Z,7.85
2019-03-01T07:19:38.763Z,7.84
2019-03-01T07:20:50.029Z,7.85
2019-03-01T07:22:00.795Z,7.86
2019-03-01T07:23:12.068Z,7.89
2019-03-01T07:24:23.422Z,7.91
2019-03-01T07:25:34.635Z,7.92
2019-03-01T07:26:45.896Z,7.92
2019-03-01T07:27:57.175Z,7.93
2019-03-01T07:29:08.436Z,7.94
2019-03-01T07:30:19.710Z,7.93
2019-03-01T07:31:30.979Z,7.95
2019-03-01T07:32:42.249Z,7.96
2019-03-01T07:33:53.519Z,7.95
2019-03-01T07:35:04.793Z,7.96
2019-03-01T07:36:16.081Z,7.96
2019-03-01T07:37:26.864Z,7.96
2019-03-01T07:38:38.131Z,7.95
2019-03-01T07:39:49.385Z,7.96
2019-03-01T07:41:00.639Z,7.95
2019-03-01T07:42:11.894Z,7.96
2019-03-01T07:43:23.164Z,7.96
2019-03-01T07:44:33.941Z,7.98
2019-03-01T07:45:45.208Z,8.03
2019-03-01T07:46:55.984Z,8.08
2019-03-01T07:48:07.248Z,8.15
2019-03-01T07:49:18.027Z,8.19
2019-03-01T07:50:29.285Z,8.20
2019-03-01T07:51:40.630Z,8.21
2019-03-01T07:52:51.882Z,8.21
2019-03-01T07:54:03.137Z,8.22
2019-03-01T07:55:13.936Z,8.26
2019-03-01T07:56:25.190Z,8.27
2019-03-01T07:57:36.448Z,8.29
2019-03-01T07:58:47.227Z,8.30
2019-03-01T07:59:58.007Z,8.30
2019-03-01T08:01:09.279Z,8.31
2019-03-01T08:02:20.620Z,8.31
2019-03-01T08:03:31.895Z,8.33
2019-03-01T08:04:42.662Z,8.34
2019-03-01T08:05:53.921Z,8.34
2019-03-01T08:07:05.183Z,8.33
2019-03-01T08:08:16.446Z,8.33
2019-03-01T08:09:27.711Z,8.33
2019-03-01T08:10:38.967Z,8.34
2019-03-01T08:11:50.234Z,8.34
2019-03-01T08:13:01.506Z,8.34
2019-03-01T08:14:12.782Z,8.35
2019-03-01T08:15:23.552Z,8.38
2019-03-01T08:16:34.811Z,8.39
2019-03-01T08:17:46.099Z,8.42
2019-03-01T08:18:57.366Z,8.46
2019-03-01T08:20:08.624Z,8.49
2019-03-01T08:21:19.900Z,8.52
2019-03-01T08:22:30.693Z,8.56
2019-03-01T08:23:41.484Z,8.57
2019-03-01T08:24:52.263Z,8.57
2019-03-01T08:26:03.774Z,8.57
2019-03-01T08:27:14.810Z,8.57
2019-03-01T08:28:26.086Z,8.56
2019-03-01T08:29:37.377Z,8.55
2019-03-01T08:30:48.648Z,8.54
2019-03-01T08:31:59.914Z,8.55
2019-03-01T08:33:11.176Z,8.57
2019-03-01T08:34:22.650Z,8.61
2019-03-01T08:35:33.947Z,8.67
2019-03-01T08:36:45.210Z,8.75
2019-03-01T08:37:56.636Z,8.83
2019-03-01T08:39:07.427Z,8.91
2019-03-01T08:40:18.731Z,8.97
2019-03-01T08:41:29.985Z,8.98
2019-03-01T08:42:41.255Z,8.95
2019-03-01T08:43:52.615Z,8.90
2019-03-01T08:45:03.892Z,8.85
2019-03-01T08:46:14.666Z,8.83
2019-03-01T08:47:25.951Z,8.84
2019-03-01T08:48:37.282Z,8.88
2019-03-01T08:49:48.622Z,8.90
2019-03-01T08:50:59.903Z,8.94
2019-03-01T08:52:11.182Z,8.97
2019-03-01T08:53:22.621Z,9.03
2019-03-01T08:54:33.895Z,9.11
2019-03-01T08:55:45.175Z,9.18
2019-03-01T08:56:56.453Z,9.24
2019-03-01T08:58:07.773Z,9.32
2019-03-01T08:59:19.052Z,9.41
2019-03-01T09:00:29.854Z,9.50
2019-03-01T09:01:41.782Z,9.63
2019-03-01T09:02:52.421Z,9.75
2019-03-01T09:04:03.740Z,9.85
2019-03-01T09:05:15.028Z,9.91
2019-03-01T09:06:26.332Z,10.00
2019-03-01T09:07:37.634Z,10.10
2019-03-01T09:08:48.938Z,10.23
2019-03-01T09:10:00.307Z,10.38
2019-03-01T09:11:11.531Z,10.51
2019-03-01T09:12:22.833Z,10.64
2019-03-01T09:13:36.088Z,10.73
2019-03-01T09:14:45.451Z,10.80
2019-03-01T09:15:56.758Z,10.88
2019-03-01T09:17:08.073Z,10.94
2019-03-01T09:18:19.376Z,10.96
2019-03-01T09:19:31.689Z,10.96
2019-03-01T09:20:43.015Z,10.93
2019-03-01T09:21:53.827Z,10.91
2019-03-01T09:23:16.332Z,10.86
2019-03-01T09:24:15.962Z,10.80
2019-03-01T09:25:27.272Z,10.75
2019-03-01T09:26:38.599Z,10.64
2019-03-01T09:27:49.907Z,10.54
2019-03-01T09:29:01.222Z,10.45
2019-03-01T09:30:12.619Z,10.38
2019-03-01T09:31:24.934Z,10.31
2019-03-01T09:32:36.250Z,10.24
2019-03-01T09:33:47.560Z,10.17
2019-03-01T09:34:58.887Z,10.10
2019-03-01T09:36:10.195Z,10.06
2019-03-01T09:37:21.018Z,10.03
2019-03-01T09:38:32.335Z,10.00
2019-03-01T09:39:43.638Z,9.96
2019-03-01T09:40:57.412Z,9.91
2019-03-01T09:42:06.760Z,9.85
2019-03-01T09:43:18.074Z,9.80
2019-03-01T09:44:29.380Z,9.76
2019-03-01T09:45:40.180Z,9.73
2019-03-01T09:46:51.009Z,9.71
2019-03-01T09:48:02.322Z,9.67
2019-03-01T09:49:13.627Z,9.64
2019-03-01T09:50:24.931Z,9.64
2019-03-01T09:51:35.750Z,9.66
2019-03-01T09:52:47.057Z,9.71
2019-03-01T09:53:57.859Z,9.76
2019-03-01T09:55:08.662Z,9.80
2019-03-01T09:56:19.461Z,9.84
2019-03-01T09:57:30.775Z,9.87
2019-03-01T09:58:41.581Z,9.92
2019-03-01T09:59:52.394Z,9.97
2019-03-01T10:01:03.699Z,10.01
2019-03-01T10:02:14.995Z,10.06
2019-03-01T10:03:26.298Z,10.11
2019-03-01T10:04:38.617Z,10.16
2019-03-01T10:05:49.927Z,10.22
2019-03-01T10:07:00.743Z,10.31
2019-03-01T10:08:12.052Z,10.42
2019-03-01T10:09:22.864Z,10.55
2019-03-01T10:10:34.173Z,10.71
2019-03-01T10:11:44.988Z,10.91
2019-03-01T10:12:56.810Z,11.10
2019-03-01T10:14:08.116Z,11.31
2019-03-01T10:15:19.437Z,11.49
2019-03-01T10:16:30.765Z,11.62
2019-03-01T10:17:42.099Z,11.76
2019-03-01T10:18:53.415Z,11.86
2019-03-01T10:20:04.745Z,11.96
2019-03-01T10:21:15.578Z,12.03
2019-03-01T10:22:26.908Z,12.04
2019-03-01T10:23:38.223Z,12.02
2019-03-01T10:24:49.544Z,11.97
2019-03-01T10:26:00.380Z,11.92
2019-03-01T10:27:11.695Z,11.92
2019-03-01T10:28:22.580Z,11.92
2019-03-01T10:29:33.882Z,11.96
2019-03-01T10:30:45.204Z,12.01
2019-03-01T10:31:56.631Z,12.05
2019-03-01T10:33:07.473Z,12.14
2019-03-01T10:34:18.808Z,12.27
2019-03-01T10:35:30.645Z,12.40
2019-03-01T10:36:41.975Z,12.53
2019-03-01T10:37:53.775Z,12.61
2019-03-01T10:39:04.199Z,12.63
2019-03-01T10:40:15.555Z,12.64
2019-03-01T10:41:26.899Z,12.62
2019-03-01T10:42:38.235Z,12.62
2019-03-01T10:43:49.091Z,12.67
2019-03-01T10:45:00.438Z,12.74
2019-03-01T10:46:11.316Z,12.83
2019-03-01T10:47:22.675Z,12.92
2019-03-01T10:48:34.634Z,13.00
2019-03-01T10:49:45.984Z,13.08
2019-03-01T10:50:56.840Z,13.13
2019-03-01T10:52:08.183Z,13.11
2019-03-01T10:53:19.572Z,13.05
2019-03-01T10:54:30.918Z,12.98
2019-03-01T10:55:42.275Z,12.88
2019-03-01T10:56:53.633Z,12.83
2019-03-01T10:58:04.980Z,12.79
2019-03-01T10:59:16.342Z,12.84
2019-03-01T11:00:27.203Z,12.90
2019-03-01T11:01:38.627Z,13.09
2019-03-01T11:02:50.008Z,13.39
2019-03-01T11:04:01.369Z,13.67
2019-03-01T11:05:12.745Z,13.83
2019-03-01T11:06:24.114Z,13.92
2019-03-01T11:07:34.978Z,14.02
2019-03-01T11:08:45.882Z,14.09
2019-03-01T11:09:57.256Z,14.18
2019-03-01T11:11:08.132Z,14.27
2019-03-01T11:12:19.502Z,14.30
2019-03-01T11:13:30.375Z,14.29
2019-03-01T11:14:41.266Z,14.21
2019-03-01T11:15:52.151Z,14.09
2019-03-01T11:17:03.533Z,13.97
2019-03-01T11:18:14.929Z,13.77
2019-03-01T11:19:25.803Z,13.57
2019-03-01T11:20:37.180Z,13.36
2019-03-01T11:21:48.616Z,13.21
2019-03-01T11:22:59.494Z,13.07
2019-03-01T11:24:10.371Z,12.95
2019-03-01T11:25:21.256Z,12.83
2019-03-01T11:26:32.628Z,12.71
2019-03-01T11:27:43.990Z,12.65
2019-03-01T11:28:55.351Z,12.71
2019-03-01T11:30:06.730Z,12.83
2019-03-01T11:31:17.603Z,12.94
2019-03-01T11:32:28.629Z,12.98
2019-03-01T11:33:39.996Z,13.03
2019-03-01T11:34:51.386Z,13.07
2019-03-01T11:36:02.265Z,13.12
2019-03-01T11:37:13.140Z,13.26
2019-03-01T11:38:24.025Z,13.47
2019-03-01T11:39:35.404Z,13.67
2019-03-01T11:40:46.290Z,13.79
2019-03-01T11:41:57.695Z,13.86
2019-03-01T11:43:09.067Z,13.90
2019-03-01T11:44:20.437Z,13.90
2019-03-01T11:45:31.821Z,13.91
2019-03-01T11:46:42.706Z,13.97
2019-03-01T11:47:54.098Z,14.14
2019-03-01T11:49:04.990Z,14.29
2019-03-01T11:50:16.382Z,14.38
2019-03-01T11:51:27.866Z,14.33
2019-03-01T11:52:38.677Z,14.18
2019-03-01T11:53:49.559Z,14.00
2019-03-01T11:55:00.937Z,13.88
2019-03-01T11:56:12.325Z,13.76
2019-03-01T11:57:23.214Z,13.65
2019-03-01T11:58:34.621Z,13.60
2019-03-01T11:59:45.522Z,13.56
2019-03-01T12:00:56.427Z,13.57
2019-03-01T12:02:07.796Z,13.60
2019-03-01T12:03:19.204Z,13.56
2019-03-01T12:04:30.097Z,13.51
2019-03-01T12:05:41.475Z,13.44
2019-03-01T12:06:52.861Z,13.37
2019-03-01T12:08:04.246Z,13.30
2019-03-01T12:09:15.619Z,13.24
2019-03-01T12:10:26.515Z,13.19
2019-03-01T12:11:37.908Z,13.15
2019-03-01T12:12:49.283Z,13.13
2019-03-01T12:14:00.180Z,13.14
2019-03-01T12:15:11.062Z,13.15
2019-03-01T12:16:22.436Z,13.21
2019-03-01T12:17:33.818Z,13.32
2019-03-01T12:18:45.213Z,13.51
2019-03-01T12:19:56.619Z,13.70
2019-03-01T12:21:07.504Z,13.87
2019-03-01T12:22:18.382Z,13.94
2019-03-01T12:23:29.271Z,13.92
2019-03-01T12:24:40.658Z,13.87
2019-03-01T12:25:52.043Z,13.82
2019-03-01T12:27:03.429Z,13.85
2019-03-01T12:28:14.314Z,13.95
2019-03-01T12:29:26.207Z,14.05
2019-03-01T12:30:37.591Z,14.10
2019-03-01T12:31:48.487Z,14.13
2019-03-01T12:32:59.867Z,14.15
2019-03-01T12:34:11.265Z,14.29
2019-03-01T12:35:22.680Z,14.53
2019-03-01T12:36:34.084Z,14.60
2019-03-01T12:37:44.986Z,14.57
2019-03-01T12:38:55.896Z,14.54
2019-03-01T12:40:07.299Z,14.44
2019-03-01T12:41:18.708Z,14.32
2019-03-01T12:42:30.121Z,14.21
2019-03-01T12:43:41.025Z,14.10
2019-03-01T12:44:52.342Z,14.00
2019-03-01T12:46:02.852Z,13.89
2019-03-01T12:47:14.272Z,13.78
2019-03-01T12:48:25.160Z,13.67
2019-03-01T12:49:36.615Z,13.57
2019-03-01T12:50:48.019Z,13.48
2019-03-01T12:51:59.410Z,13.39
2019-03-01T12:53:10.807Z,13.33
2019-03-01T12:54:22.195Z,13.31
2019-03-01T12:55:33.090Z,13.29
2019-03-01T12:56:44.625Z,13.26
2019-03-01T12:57:56.034Z,13.25
2019-03-01T12:59:07.434Z,13.27
2019-03-01T13:00:18.821Z,13.33
2019-03-01T13:01:29.714Z,13.41
2019-03-01T13:02:41.118Z,13.54
2019-03-01T13:03:52.633Z,13.67
2019-03-01T13:05:04.024Z,13.82
2019-03-01T13:06:15.417Z,13.96
2019-03-01T13:07:26.844Z,14.08
2019-03-01T13:08:38.241Z,14.15
2019-03-01T13:09:49.151Z,14.19
2019-03-01T13:11:00.073Z,14.20
2019-03-01T13:12:11.500Z,14.15
2019-03-01T13:13:22.914Z,14.04
2019-03-01T13:14:36.774Z,13.92
2019-03-01T13:15:45.406Z,13.83
2019-03-01T13:16:58.604Z,13.75
2019-03-01T13:18:10.328Z,13.69
2019-03-01T13:19:18.967Z,13.63
2019-03-01T13:20:30.372Z,13.57
2019-03-01T13:21:41.289Z,13.49
2019-03-01T13:22:52.711Z,13.37
2019-03-01T13:24:04.115Z,13.26
2019-03-01T13:25:15.795Z,13.15
2019-03-01T13:26:26.918Z,13.07
2019-03-01T13:27:38.322Z,12.99
2019-03-01T13:28:49.720Z,12.88
2019-03-01T13:30:00.612Z,12.76
2019-03-01T13:31:12.283Z,12.68
2019-03-01T13:32:23.886Z,12.61
2019-03-01T13:33:34.793Z,12.54
2019-03-01T13:34:45.867Z,12.46
2019-03-01T13:36:00.065Z,12.39
2019-03-01T13:37:08.447Z,12.32
2019-03-01T13:38:19.834Z,12.27
2019-03-01T13:39:31.219Z,12.23
2019-03-01T13:40:42.634Z,12.21
2019-03-01T13:41:53.517Z,12.21
2019-03-01T13:43:04.576Z,12.24
2019-03-01T13:44:15.956Z,12.27
2019-03-01T13:45:26.823Z,12.30
2019-03-01T13:46:37.702Z,12.32
2019-03-01T13:47:48.573Z,12.34
2019-03-01T13:48:59.945Z,12.35
2019-03-01T13:50:10.817Z,12.37
2019-03-01T13:51:21.700Z,12.38
2019-03-01T13:52:32.570Z,12.38
2019-03-01T13:53:49.048Z,12.37
2019-03-01T13:54:55.331Z,12.42
2019-03-01T13:56:06.215Z,12.52
2019-03-01T13:57:17.590Z,12.64
2019-03-01T13:58:29.005Z,12.74
2019-03-01T13:59:43.727Z,12.78
2019-03-01T14:00:51.753Z,12.80
2019-03-01T14:02:04.370Z,12.79
2019-03-01T14:03:14.010Z,12.74
2019-03-01T14:04:24.895Z,12.68
2019-03-01T14:05:36.278Z,12.68
2019-03-01T14:06:47.154Z,12.67
2019-03-01T14:08:05.958Z,12.64
2019-03-01T14:09:09.503Z,12.52
2019-03-01T14:10:20.871Z,12.41
2019-03-01T14:11:31.753Z,12.26
2019-03-01T14:12:43.117Z,12.12
2019-03-01T14:13:55.986Z,12.03
2019-03-01T14:15:05.396Z,11.97
2019-03-01T14:16:20.463Z,11.91
2019-03-01T14:17:28.641Z,11.86
2019-03-01T14:18:40.013Z,11.80
2019-03-01T14:19:51.395Z,11.75
2019-03-01T14:21:03.918Z,11.72
2019-03-01T14:22:14.139Z,11.69
2019-03-01T14:23:25.999Z,11.66
2019-03-01T14:24:36.376Z,11.62
2019-03-01T14:25:47.755Z,11.60
2019-03-01T14:26:59.275Z,11.60
2019-03-01T14:28:10.011Z,11.62
2019-03-01T14:29:20.891Z,11.63
2019-03-01T14:30:33.466Z,11.64
2019-03-01T14:31:42.927Z,11.63
2019-03-01T14:32:57.050Z,11.63
2019-03-01T14:34:04.850Z,11.64
2019-03-01T14:35:16.209Z,11.66
2019-03-01T14:36:27.097Z,11.71
2019-03-01T14:37:38.453Z,11.76
2019-03-01T14:38:49.808Z,11.82
2019-03-01T14:40:01.183Z,11.99
2019-03-01T14:41:12.052Z,12.15
2019-03-01T14:42:22.922Z,12.25
2019-03-01T14:43:33.792Z,12.41
2019-03-01T14:44:44.676Z,12.78
2019-03-01T14:45:56.042Z,13.26
2019-03-01T14:47:07.411Z,13.52
2019-03-01T14:48:18.315Z,13.83
2019-03-01T14:49:29.716Z,14.38
2019-03-01T14:50:40.630Z,14.91
2019-03-01T14:51:51.525Z,15.44
2019-03-01T14:53:02.437Z,15.91
2019-03-01T14:54:14.855Z,16.35
2019-03-01T14:55:26.303Z,16.33
2019-03-01T14:56:37.734Z,16.00
2019-03-01T14:57:48.667Z,15.55
2019-03-01T14:59:00.106Z,15.12
2019-03-01T15:00:12.959Z,14.70
2019-03-01T15:01:23.234Z,14.31
2019-03-01T15:02:39.590Z,13.97
2019-03-01T15:03:45.793Z,13.69
2019-03-01T15:04:56.706Z,13.40
2019-03-01T15:06:07.634Z,13.17
2019-03-01T15:07:18.548Z,12.96
2019-03-01T15:08:29.954Z,12.79
2019-03-01T15:09:41.362Z,12.64
2019-03-01T15:10:52.759Z,12.49
2019-03-01T15:12:04.166Z,12.38
2019-03-01T15:13:15.053Z,12.29
2019-03-01T15:14:26.597Z,12.21
2019-03-01T15:15:37.502Z,12.15
2019-03-01T15:16:48.891Z,12.14
2019-03-01T15:18:00.268Z,12.15
2019-03-01T15:19:11.657Z,12.16
2019-03-01T15:20:24.315Z,12.20
2019-03-01T15:21:37.581Z,12.24
2019-03-01T15:22:48.761Z,12.30
2019-03-01T15:24:00.426Z,12.33
2019-03-01T15:25:12.011Z,12.34
2019-03-01T15:26:18.981Z,12.33
2019-03-01T15:27:30.366Z,12.30
2019-03-01T15:28:41.253Z,12.23
2019-03-01T15:29:52.638Z,12.18
2019-03-01T15:31:03.527Z,12.10
2019-03-01T15:32:14.897Z,12.05
2019-03-01T15:33:26.270Z,11.98
2019-03-01T15:34:37.146Z,11.96
2019-03-01T15:35:48.035Z,11.91
2019-03-01T15:36:59.418Z,11.85